Time;durP1;ratioP1;P1;durP2;ratioP2;P2;SDS_P1;SDS_P2;PMS_P1;PMS_P2;Temp;Humidity;BMP_temperature;BMP_pressure;BME280_temperature;BME280_humidity;BME280_pressure;Samples;Min_cycle;Max_cycle;Signal;HPM_P1;HPM_P2
2022/07/21 00:00:42;;;;;;;11.27;10.15;;;23.40;99.90;;;;;;5087540;28;20027;-71
2022/07/21 00:03:07;;;;;;;12.10;10.50;;;23.40;99.90;;;;;;5088331;28;20054;-71
2022/07/21 00:05:34;;;;;;;12.32;10.05;;;23.40;99.90;;;;;;5086842;28;20028;-71
2022/07/21 00:08:00;;;;;;;12.18;10.98;;;23.30;99.90;;;;;;5078425;28;20021;-71
2022/07/21 00:10:27;;;;;;;11.48;10.07;;;23.20;99.90;;;;;;5083301;28;20032;-71
2022/07/21 00:12:54;;;;;;;10.77;9.75;;;23.30;99.90;;;;;;5087079;28;20461;-71
2022/07/21 00:15:22;;;;;;;11.77;10.57;;;23.10;99.90;;;;;;5087773;28;20024;-71
2022/07/21 00:17:48;;;;;;;12.05;10.48;;;23.10;99.90;;;;;;5085595;28;20082;-71
2022/07/21 00:20:15;;;;;;;14.10;11.38;;;23.10;99.90;;;;;;5081338;28;20029;-71
2022/07/21 00:22:41;;;;;;;12.32;11.02;;;23.10;99.90;;;;;;5093038;28;20024;-70
2022/07/21 00:25:08;;;;;;;12.50;11.27;;;23.10;99.90;;;;;;5085447;28;20032;-70
2022/07/21 00:27:34;;;;;;;13.30;11.45;;;23.10;99.90;;;;;;5079413;28;20157;-70
2022/07/21 00:30:00;;;;;;;11.90;10.80;;;23.10;99.90;;;;;;5086398;28;20039;-71
2022/07/21 00:32:26;;;;;;;13.35;11.00;;;23.10;99.90;;;;;;5084832;28;20032;-71
2022/07/21 00:34:52;;;;;;;12.07;10.60;;;23.00;99.90;;;;;;5090064;28;20020;-70
2022/07/21 00:37:17;;;;;;;12.55;11.30;;;23.00;99.90;;;;;;5087789;28;20035;-71
2022/07/21 00:39:43;;;;;;;13.00;10.88;;;23.10;99.90;;;;;;5090074;28;20082;-71
2022/07/21 00:42:20;;;;;;;14.82;12.02;;;23.10;99.90;;;;;;5079648;28;20473;-71
2022/07/21 00:44:46;;;;;;;15.68;12.60;;;23.10;99.90;;;;;;5078981;28;20029;-71
2022/07/21 00:47:11;;;;;;;13.77;12.32;;;23.10;99.90;;;;;;5084795;28;20028;-70
2022/07/21 00:49:37;;;;;;;15.27;13.02;;;23.10;99.90;;;;;;5090020;28;20036;-71
2022/07/21 00:52:03;;;;;;;14.32;12.65;;;23.10;99.90;;;;;;5084854;28;20426;-71
2022/07/21 00:54:28;;;;;;;15.07;12.35;;;23.00;99.90;;;;;;5084776;28;20035;-70
2022/07/21 00:56:54;;;;;;;16.95;13.07;;;23.00;99.90;;;;;;5081445;28;20036;-70
2022/07/21 00:59:20;;;;;;;14.07;12.63;;;23.10;99.90;;;;;;5079302;28;20032;-71
2022/07/21 01:01:46;;;;;;;14.13;11.95;;;23.10;99.90;;;;;;5081548;28;20024;-71
2022/07/21 01:04:11;;;;;;;15.18;12.30;;;23.10;99.90;;;;;;5092071;28;20456;-71
2022/07/21 01:06:37;;;;;;;14.40;12.90;;;22.90;99.90;;;;;;5079255;28;20028;-70
2022/07/21 01:09:03;;;;;;;15.18;12.30;;;22.70;99.90;;;;;;5085645;28;20024;-70
2022/07/21 01:11:29;;;;;;;14.30;12.52;;;22.70;99.90;;;;;;5086867;28;20059;-70
2022/07/21 01:13:55;;;;;;;14.73;12.68;;;22.70;99.90;;;;;;5085817;28;20354;-70
2022/07/21 01:16:21;;;;;;;14.27;12.77;;;22.80;99.90;;;;;;5087994;28;20095;-71
2022/07/21 01:18:46;;;;;;;14.05;12.55;;;22.70;99.90;;;;;;5083444;28;20024;-71
2022/07/21 01:21:32;;;;;;;14.25;12.23;;;22.70;99.90;;;;;;5125487;27;20019;-71
2022/07/21 01:23:59;;;;;;;15.60;13.95;;;22.80;99.90;;;;;;5079195;28;20021;-71
2022/07/21 01:26:26;;;;;;;16.98;13.30;;;22.90;99.90;;;;;;5090415;28;20071;-71
2022/07/21 01:28:53;;;;;;;16.42;13.15;;;22.90;99.90;;;;;;5085415;28;20027;-71
2022/07/21 01:31:18;;;;;;;14.55;13.05;;;22.70;99.90;;;;;;5087916;28;20047;-71
2022/07/21 01:33:44;;;;;;;16.02;13.73;;;22.80;99.90;;;;;;5085580;28;20047;-71
2022/07/21 01:36:10;;;;;;;15.93;14.32;;;22.80;99.90;;;;;;5085852;28;20025;-71
2022/07/21 01:41:30;;;;;;;16.88;14.48;;;22.40;99.90;;;;;;5085756;28;20382;-71
2022/07/21 01:44:01;;;;;;;15.77;14.13;;;22.50;99.90;;;;;;5080121;28;20509;-70
2022/07/21 01:46:29;;;;;;;16.23;13.75;;;22.60;99.90;;;;;;5079419;28;20746;-71
2022/07/21 01:48:55;;;;;;;14.93;13.50;;;22.70;99.90;;;;;;5081632;28;20025;-71
2022/07/21 01:51:20;;;;;;;18.02;14.45;;;22.50;99.90;;;;;;5117660;27;20378;-71
2022/07/21 01:53:46;;;;;;;21.42;16.48;;;22.40;99.90;;;;;;5090850;28;20034;-71
2022/07/21 01:56:12;;;;;;;17.27;15.40;;;22.40;99.90;;;;;;5082681;28;20400;-71
2022/07/21 01:58:37;;;;;;;18.02;14.63;;;22.30;99.90;;;;;;5082920;28;20028;-71
2022/07/21 02:01:03;;;;;;;19.75;15.63;;;22.40;99.90;;;;;;5111935;27;20452;-71
2022/07/21 02:03:29;;;;;;;18.70;14.82;;;22.40;99.90;;;;;;5088724;28;20028;-71
2022/07/21 02:06:01;;;;;;;17.25;15.23;;;22.50;99.90;;;;;;5077456;28;20107;-71
2022/07/21 02:08:26;;;;;;;21.08;15.13;;;22.40;99.90;;;;;;5084306;28;20358;-71
2022/07/21 02:10:52;;;;;;;18.40;16.50;;;22.40;99.90;;;;;;5092845;28;20029;-71
2022/07/21 02:13:18;;;;;;;15.82;13.82;;;22.40;99.90;;;;;;5080690;28;20016;-71
2022/07/21 02:15:43;;;;;;;18.55;16.27;;;22.40;99.90;;;;;;5084316;28;20016;-71
2022/07/21 02:18:09;;;;;;;17.73;15.68;;;22.40;99.90;;;;;;5085318;28;20542;-71
2022/07/21 02:20:35;;;;;;;17.52;15.65;;;22.40;99.90;;;;;;5080066;28;20035;-71
2022/07/21 02:23:00;;;;;;;17.80;15.38;;;22.50;99.90;;;;;;5080719;28;20020;-71
2022/07/21 02:25:26;;;;;;;15.55;14.00;;;22.40;99.90;;;;;;5083174;28;20459;-70
2022/07/21 02:27:52;;;;;;;17.70;14.90;;;22.50;99.90;;;;;;5077874;28;20028;-71
2022/07/21 02:30:18;;;;;;;16.13;14.52;;;22.40;99.90;;;;;;5086640;28;20066;-69
2022/07/21 02:32:44;;;;;;;16.38;14.88;;;22.40;99.90;;;;;;5085182;28;20103;-70
2022/07/21 02:35:10;;;;;;;15.65;14.13;;;22.40;99.90;;;;;;5078923;28;20031;-71
2022/07/21 02:37:37;;;;;;;16.33;14.18;;;22.40;99.90;;;;;;5080767;28;20008;-70
2022/07/21 02:40:03;;;;;;;18.13;13.15;;;22.50;99.90;;;;;;5081717;28;20060;-70
2022/07/21 02:42:29;;;;;;;17.85;14.95;;;22.50;99.90;;;;;;5081277;28;20016;-71
2022/07/21 02:44:54;;;;;;;17.35;14.95;;;22.50;99.90;;;;;;5084706;28;20040;-70
2022/07/21 02:47:20;;;;;;;17.67;15.77;;;22.60;99.90;;;;;;5080963;28;20016;-71
2022/07/21 02:49:47;;;;;;;18.13;15.93;;;22.50;99.90;;;;;;5086295;28;20032;-70
2022/07/21 02:52:13;;;;;;;18.92;15.93;;;22.50;99.90;;;;;;5084115;28;20016;-71
2022/07/21 02:54:38;;;;;;;17.67;15.13;;;22.40;99.90;;;;;;5079180;28;20035;-71
2022/07/21 02:57:04;;;;;;;17.58;15.88;;;22.40;99.90;;;;;;5087254;28;20051;-70
2022/07/21 02:59:29;;;;;;;16.23;14.50;;;22.30;99.90;;;;;;5081785;28;20621;-71
2022/07/21 03:01:55;;;;;;;18.90;16.23;;;22.30;99.90;;;;;;5080451;28;20070;-70
2022/07/21 03:04:21;;;;;;;17.67;15.85;;;22.30;99.90;;;;;;5086605;28;20392;-71
2022/07/21 03:06:46;;;;;;;18.88;15.82;;;22.20;99.90;;;;;;5079743;28;20028;-71
2022/07/21 03:09:12;;;;;;;17.65;15.05;;;22.20;99.90;;;;;;5085784;28;20087;-71
2022/07/21 03:11:38;;;;;;;16.98;15.18;;;22.20;99.90;;;;;;5084090;28;20038;-71
2022/07/21 03:14:03;;;;;;;19.00;16.25;;;22.30;99.90;;;;;;5079489;28;20111;-70
2022/07/21 03:16:29;;;;;;;17.70;15.80;;;22.20;99.90;;;;;;5089469;28;20103;-70
2022/07/21 03:18:55;;;;;;;21.25;16.15;;;22.10;99.90;;;;;;5083656;28;20027;-71
2022/07/21 03:21:20;;;;;;;18.80;16.10;;;22.20;99.90;;;;;;5085902;28;20021;-71
2022/07/21 03:23:46;;;;;;;19.73;15.80;;;22.20;99.90;;;;;;5082823;28;20436;-71
2022/07/21 03:26:15;;;;;;;17.58;15.88;;;22.20;99.90;;;;;;5076254;28;20032;-71
2022/07/21 03:28:44;;;;;;;17.70;15.77;;;22.20;99.90;;;;;;5084854;28;20024;-69
2022/07/21 03:31:10;;;;;;;18.85;15.48;;;22.00;99.90;;;;;;5084579;28;20036;-70
2022/07/21 03:33:36;;;;;;;19.60;15.25;;;22.00;99.90;;;;;;5078642;28;20076;-71
2022/07/21 03:36:02;;;;;;;22.17;15.80;;;22.00;99.90;;;;;;5081126;28;20092;-70
2022/07/21 03:38:28;;;;;;;20.98;17.42;;;22.10;99.90;;;;;;5091036;28;20027;-71
2022/07/21 03:40:53;;;;;;;17.20;14.68;;;22.00;99.90;;;;;;5081139;28;20021;-71
2022/07/21 03:43:19;;;;;;;19.02;15.63;;;22.00;99.90;;;;;;5076635;28;20025;-71
2022/07/21 03:45:45;;;;;;;17.65;15.75;;;21.90;99.90;;;;;;5082888;28;20127;-71
2022/07/21 03:48:12;;;;;;;18.48;16.15;;;22.00;99.90;;;;;;5081074;28;20101;-71
2022/07/21 03:50:40;;;;;;;20.17;16.60;;;22.00;99.90;;;;;;5085158;28;20028;-71
2022/07/21 03:53:07;;;;;;;18.92;15.93;;;21.90;99.90;;;;;;5081424;28;20036;-70
2022/07/21 03:55:33;;;;;;;21.88;16.63;;;22.00;99.90;;;;;;5088095;28;20038;-71
2022/07/21 03:58:01;;;;;;;19.73;16.02;;;22.10;99.90;;;;;;5079187;28;20021;-71
2022/07/21 04:00:30;;;;;;;21.83;15.88;;;22.00;99.90;;;;;;5078073;28;20013;-71
2022/07/21 04:02:57;;;;;;;19.00;15.52;;;22.10;99.90;;;;;;5082452;28;20020;-71
2022/07/21 04:05:24;;;;;;;19.13;16.98;;;22.20;99.90;;;;;;5082571;28;20029;-71
2022/07/21 04:07:51;;;;;;;16.33;14.45;;;22.10;99.90;;;;;;5075738;28;20422;-71
2022/07/21 04:10:19;;;;;;;18.63;15.15;;;22.10;99.90;;;;;;5083028;28;20059;-71
2022/07/21 04:12:46;;;;;;;16.80;14.98;;;22.10;99.90;;;;;;5080665;28;20028;-71
2022/07/21 04:15:12;;;;;;;16.88;15.07;;;22.10;99.90;;;;;;5078944;28;20077;-71
2022/07/21 04:17:39;;;;;;;22.73;15.52;;;22.00;99.90;;;;;;5079569;28;20035;-72
2022/07/21 04:20:06;;;;;;;19.17;15.35;;;22.10;99.90;;;;;;5082775;28;20027;-71
2022/07/21 04:22:32;;;;;;;18.40;14.35;;;22.20;99.90;;;;;;5084380;28;20011;-71
2022/07/21 04:24:57;;;;;;;18.08;14.43;;;22.00;99.90;;;;;;5087436;28;20101;-71
2022/07/21 04:27:23;;;;;;;18.48;13.75;;;22.10;99.90;;;;;;5078889;28;20496;-70
2022/07/21 04:29:48;;;;;;;20.20;16.15;;;22.10;99.90;;;;;;5082950;28;20056;-71
2022/07/21 04:32:14;;;;;;;17.58;15.38;;;22.10;99.90;;;;;;5086524;28;20542;-71
2022/07/21 04:34:40;;;;;;;18.00;14.55;;;22.10;99.90;;;;;;5090220;28;20108;-71
2022/07/21 04:37:06;;;;;;;16.60;14.68;;;22.10;99.90;;;;;;5086540;28;20461;-70
2022/07/21 04:39:31;;;;;;;14.00;12.38;;;22.10;99.90;;;;;;5090748;28;20035;-70
2022/07/21 04:41:57;;;;;;;15.32;12.02;;;22.10;99.90;;;;;;5084117;28;20021;-70
2022/07/21 04:44:23;;;;;;;15.68;13.60;;;22.20;99.90;;;;;;5091103;28;20087;-71
2022/07/21 04:46:49;;;;;;;16.38;12.77;;;22.20;99.90;;;;;;5085052;28;20031;-71
2022/07/21 04:49:14;;;;;;;17.00;13.50;;;22.20;99.90;;;;;;5082854;28;20082;-71
2022/07/21 04:51:40;;;;;;;14.10;11.35;;;22.30;99.90;;;;;;5082902;28;20021;-70
2022/07/21 04:54:06;;;;;;;14.60;11.70;;;22.30;99.90;;;;;;5089326;28;20017;-70
2022/07/21 04:56:34;;;;;;;19.00;14.20;;;22.30;99.90;;;;;;5088269;28;20039;-71
2022/07/21 04:59:00;;;;;;;18.20;13.95;;;22.30;99.90;;;;;;5082459;28;20028;-71
2022/07/21 05:01:25;;;;;;;16.83;13.70;;;22.20;99.90;;;;;;5093036;28;20112;-70
2022/07/21 05:03:51;;;;;;;16.50;12.60;;;22.30;99.90;;;;;;5085407;28;20062;-70
2022/07/21 05:06:18;;;;;;;16.27;12.70;;;22.30;99.90;;;;;;5118373;27;20048;-70
2022/07/21 05:08:44;;;;;;;17.95;13.27;;;22.30;99.90;;;;;;5083549;28;20025;-70
2022/07/21 05:11:09;;;;;;;19.10;13.15;;;22.30;99.90;;;;;;5086715;28;20027;-71
2022/07/21 05:13:35;;;;;;;16.15;12.35;;;22.30;99.90;;;;;;5088984;28;20464;-71
2022/07/21 05:16:01;;;;;;;16.38;12.13;;;22.20;99.90;;;;;;5090549;28;20060;-71
2022/07/21 05:18:26;;;;;;;18.08;12.80;;;22.20;99.90;;;;;;5080385;28;20070;-71
2022/07/21 05:20:52;;;;;;;16.08;11.90;;;22.30;99.90;;;;;;5086679;28;20035;-70
2022/07/21 05:23:18;;;;;;;15.50;13.55;;;22.30;99.90;;;;;;5086161;28;20525;-71
2022/07/21 05:25:43;;;;;;;16.50;12.43;;;22.30;99.90;;;;;;5088440;28;20446;-71
2022/07/21 05:28:09;;;;;;;15.65;12.35;;;22.30;99.90;;;;;;5079839;28;20032;-71
2022/07/21 05:30:35;;;;;;;14.13;12.63;;;22.30;99.90;;;;;;5089394;28;20476;-70
2022/07/21 05:33:01;;;;;;;17.08;12.60;;;22.30;99.90;;;;;;5087121;28;20517;-71
2022/07/21 05:35:27;;;;;;;17.38;13.60;;;22.40;99.90;;;;;;5083433;28;20035;-70
2022/07/21 05:37:52;;;;;;;14.95;12.07;;;22.40;99.90;;;;;;5089968;28;20024;-70
2022/07/21 05:40:18;;;;;;;17.98;14.13;;;22.30;99.90;;;;;;5084544;28;20389;-71
2022/07/21 05:42:44;;;;;;;16.75;12.90;;;22.40;99.90;;;;;;5082740;28;20477;-71
2022/07/21 05:45:10;;;;;;;13.80;12.40;;;22.30;99.90;;;;;;5085102;28;20036;-71
2022/07/21 05:47:36;;;;;;;16.15;12.10;;;22.30;99.90;;;;;;5081350;28;20021;-71
2022/07/21 05:50:02;;;;;;;15.00;11.52;;;22.30;99.90;;;;;;5091077;28;20053;-70
2022/07/21 05:52:27;;;;;;;16.45;13.02;;;22.40;99.90;;;;;;5083177;28;20015;-71
2022/07/21 05:54:53;;;;;;;18.70;12.32;;;22.30;99.90;;;;;;5081142;28;20067;-71
2022/07/21 05:57:19;;;;;;;16.33;14.25;;;22.40;99.90;;;;;;5084605;28;20481;-71
2022/07/21 05:59:45;;;;;;;17.25;14.10;;;22.30;99.90;;;;;;5084587;28;20028;-71
2022/07/21 06:02:11;;;;;;;15.90;12.75;;;22.30;99.90;;;;;;5088395;28;20028;-71
2022/07/21 06:04:36;;;;;;;18.52;14.00;;;22.30;99.90;;;;;;5083731;28;20042;-69
2022/07/21 06:07:02;;;;;;;17.60;12.20;;;22.20;99.90;;;;;;5081601;28;20094;-69
2022/07/21 06:09:28;;;;;;;18.45;12.65;;;22.30;99.90;;;;;;5082919;28;20082;-69
2022/07/21 06:11:54;;;;;;;15.57;13.77;;;22.20;99.90;;;;;;5085829;28;20024;-68
2022/07/21 06:14:20;;;;;;;14.50;12.82;;;22.20;99.90;;;;;;5086593;28;20107;-69
2022/07/21 06:16:45;;;;;;;18.77;13.00;;;22.30;99.90;;;;;;5080959;28;20466;-69
2022/07/21 06:19:11;;;;;;;14.95;13.15;;;22.20;99.90;;;;;;5078267;28;20481;-69
2022/07/21 06:21:36;;;;;;;18.52;15.15;;;22.20;99.90;;;;;;5091985;28;20032;-69
2022/07/21 06:24:02;;;;;;;24.00;14.88;;;22.10;99.90;;;;;;5085180;28;20024;-69
2022/07/21 06:26:28;;;;;;;20.08;14.75;;;22.20;99.90;;;;;;5081055;28;20055;-69
2022/07/21 06:28:54;;;;;;;19.25;14.05;;;22.20;99.90;;;;;;5079804;28;20465;-69
2022/07/21 06:31:20;;;;;;;17.65;14.38;;;22.10;99.90;;;;;;5086829;28;20503;-70
2022/07/21 06:33:45;;;;;;;19.88;13.77;;;22.20;99.90;;;;;;5087415;28;20035;-69
2022/07/21 06:36:11;;;;;;;20.10;15.00;;;22.30;99.90;;;;;;5081904;28;20016;-69
2022/07/21 06:38:37;;;;;;;20.75;14.60;;;22.20;99.90;;;;;;5092809;28;20577;-69
2022/07/21 06:41:03;;;;;;;21.08;14.63;;;22.20;99.90;;;;;;5087165;28;20024;-69
2022/07/21 06:43:28;;;;;;;19.67;15.18;;;22.30;99.90;;;;;;5088723;28;20052;-69
2022/07/21 06:45:55;;;;;;;24.48;17.33;;;22.30;99.90;;;;;;5086354;28;20507;-68
2022/07/21 06:48:24;;;;;;;23.73;17.23;;;22.10;99.90;;;;;;5084294;28;20017;-69
2022/07/21 06:50:50;;;;;;;24.25;16.50;;;22.20;99.90;;;;;;5083807;28;20019;-69
2022/07/21 06:53:16;;;;;;;32.10;19.13;;;22.20;99.90;;;;;;5086366;28;20063;-69
2022/07/21 06:55:42;;;;;;;24.30;18.85;;;22.10;99.90;;;;;;5085893;28;20067;-69
2022/07/21 06:58:20;;;;;;;28.00;19.25;;;22.20;99.90;;;;;;5088916;28;20409;-70
2022/07/21 07:00:46;;;;;;;25.77;17.67;;;22.20;99.90;;;;;;5085488;28;20017;-70
2022/07/21 07:03:13;;;;;;;20.73;17.52;;;22.20;99.90;;;;;;5089130;28;20028;-72
2022/07/21 07:05:39;;;;;;;23.00;16.55;;;22.20;99.90;;;;;;5087293;28;20036;-69
2022/07/21 07:08:05;;;;;;;25.23;17.75;;;22.20;99.90;;;;;;5087795;28;20023;-70
2022/07/21 07:10:31;;;;;;;25.88;17.60;;;22.40;99.90;;;;;;5093094;28;20019;-72
2022/07/21 07:12:57;;;;;;;24.08;17.50;;;22.30;99.90;;;;;;5090520;28;20422;-71
2022/07/21 07:15:24;;;;;;;27.02;20.20;;;22.30;99.90;;;;;;5089387;28;20111;-72
2022/07/21 07:17:50;;;;;;;25.80;18.60;;;22.20;99.90;;;;;;5087543;28;20013;-72
2022/07/21 07:20:16;;;;;;;26.85;18.45;;;22.20;99.90;;;;;;5092661;28;20063;-71
2022/07/21 07:22:41;;;;;;;29.77;19.33;;;22.20;99.90;;;;;;5088258;28;20056;-72
2022/07/21 07:25:08;;;;;;;29.33;19.13;;;22.20;99.90;;;;;;5087902;28;20047;-72
2022/07/21 07:27:34;;;;;;;25.75;18.05;;;22.30;99.90;;;;;;5092234;28;20031;-72
2022/07/21 07:29:59;;;;;;;31.27;23.33;;;22.50;99.90;;;;;;5088111;28;20020;-72
2022/07/21 07:32:25;;;;;;;32.15;18.60;;;22.30;99.90;;;;;;5090476;28;20054;-72
2022/07/21 07:34:51;;;;;;;26.73;20.23;;;22.40;99.90;;;;;;5086001;28;20142;-72
2022/07/21 07:37:16;;;;;;;26.23;19.63;;;22.40;99.90;;;;;;5088540;28;20067;-69
2022/07/21 07:39:42;;;;;;;26.90;18.90;;;22.40;99.90;;;;;;5084964;28;20024;-69
2022/07/21 07:42:08;;;;;;;37.17;19.42;;;22.60;99.90;;;;;;5082668;28;20048;-72
2022/07/21 07:44:34;;;;;;;29.00;21.25;;;22.60;99.90;;;;;;5084339;28;20031;-74
2022/07/21 07:47:01;;;;;;;25.65;20.73;;;22.60;99.90;;;;;;5083417;28;20377;-74
2022/07/21 07:49:31;;;;;;;31.02;19.55;;;22.60;99.90;;;;;;5080052;28;20044;-75
2022/07/21 07:51:57;;;;;;;32.63;21.98;;;22.50;99.90;;;;;;5080531;28;20024;-76
2022/07/21 07:54:24;;;;;;;30.05;21.75;;;22.50;99.90;;;;;;5083536;28;20489;-76
2022/07/21 07:56:49;;;;;;;29.52;21.52;;;22.60;99.90;;;;;;5082702;28;20036;-76
2022/07/21 07:59:15;;;;;;;36.55;23.13;;;22.60;99.90;;;;;;5081944;28;20513;-74
2022/07/21 08:01:41;;;;;;;28.25;19.20;;;22.50;99.90;;;;;;5085941;28;20034;-75
2022/07/21 08:04:07;;;;;;;26.30;20.35;;;22.50;99.90;;;;;;5090400;28;20058;-74
2022/07/21 08:06:33;;;;;;;25.60;19.75;;;22.50;99.90;;;;;;5090467;28;20151;-73
2022/07/21 08:08:59;;;;;;;25.83;20.02;;;22.60;99.90;;;;;;5082911;28;20049;-75
2022/07/21 08:11:25;;;;;;;20.08;17.50;;;22.60;99.90;;;;;;5091909;28;20039;-75
2022/07/21 08:13:51;;;;;;;24.20;16.40;;;22.60;99.90;;;;;;5086493;28;20025;-75
2022/07/21 08:16:16;;;;;;;22.80;17.30;;;22.50;99.90;;;;;;5115463;27;20020;-75
2022/07/21 08:18:43;;;;;;;25.70;18.38;;;22.50;99.90;;;;;;5095036;28;20074;-75
2022/07/21 08:21:10;;;;;;;24.35;17.13;;;22.30;99.90;;;;;;5096145;28;20030;-76
2022/07/21 08:23:36;;;;;;;25.13;19.00;;;22.20;99.90;;;;;;5088567;28;20028;-77
2022/07/21 08:26:02;;;;;;;27.88;19.45;;;22.30;99.90;;;;;;5091904;28;20059;-79
2022/07/21 08:28:28;;;;;;;31.02;20.15;;;22.10;99.90;;;;;;5089009;28;20027;-77
2022/07/21 08:30:54;;;;;;;22.27;16.20;;;22.20;99.90;;;;;;5083010;28;20119;-72
2022/07/21 08:33:19;;;;;;;27.88;18.80;;;22.10;99.90;;;;;;5090084;28;20012;-75
2022/07/21 08:35:45;;;;;;;25.88;17.30;;;22.10;99.90;;;;;;5082389;28;20031;-76
2022/07/21 08:38:11;;;;;;;25.10;19.15;;;22.10;99.90;;;;;;5086214;28;20023;-76
2022/07/21 08:40:40;;;;;;;22.73;16.98;;;22.10;99.90;;;;;;5087061;28;20031;-76
2022/07/21 08:43:08;;;;;;;17.48;15.57;;;21.80;99.90;;;;;;5083140;28;20025;-76
2022/07/21 08:45:35;;;;;;;20.92;17.23;;;21.90;99.90;;;;;;5082950;28;20039;-76
2022/07/21 08:48:01;;;;;;;20.98;15.75;;;21.90;99.90;;;;;;5084007;28;20044;-76
2022/07/21 08:50:32;;;;;;;23.50;17.02;;;21.90;99.90;;;;;;5082639;28;20466;-78
2022/07/21 08:52:58;;;;;;;16.98;15.02;;;21.90;99.90;;;;;;5083719;28;20020;-78
2022/07/21 08:55:24;;;;;;;16.15;14.40;;;21.90;99.90;;;;;;5086859;28;20040;-83
2022/07/21 08:57:50;;;;;;;19.50;15.27;;;22.00;99.90;;;;;;5088059;28;20043;-82
2022/07/21 09:00:16;;;;;;;19.17;15.27;;;22.00;99.90;;;;;;5084794;28;20046;-78
2022/07/21 09:02:41;;;;;;;20.88;14.27;;;22.00;99.90;;;;;;5081247;28;20393;-81
2022/07/21 09:05:09;;;;;;;15.90;13.25;;;22.00;99.90;;;;;;5083792;28;20032;-83
2022/07/21 09:07:48;;;;;;;16.42;13.95;;;21.90;99.90;;;;;;5087069;28;20020;-81
2022/07/21 09:10:13;;;;;;;17.17;13.27;;;22.00;99.90;;;;;;5082521;28;20035;-81
2022/07/21 09:12:52;;;;;;;18.23;13.15;;;22.00;99.90;;;;;;5083060;28;20029;-81
2022/07/21 09:15:20;;;;;;;13.25;11.80;;;22.00;99.90;;;;;;5084701;28;20437;-78
2022/07/21 09:17:46;;;;;;;15.55;11.60;;;22.10;99.90;;;;;;5081295;28;20017;-79
2022/07/21 09:20:23;;;;;;;13.90;10.60;;;22.10;99.90;;;;;;5084484;28;20027;-80
2022/07/21 09:23:11;;;;;;;13.07;11.80;;;22.10;99.90;;;;;;5082715;28;20021;-78
2022/07/21 09:25:48;;;;;;;13.93;12.45;;;22.10;99.90;;;;;;5082683;28;20060;-80
2022/07/21 09:28:18;;;;;;;11.73;10.52;;;22.10;99.90;;;;;;5081928;28;20029;-77
2022/07/21 09:31:00;;;;;;;12.40;11.13;;;22.10;99.90;;;;;;5085840;28;20024;-78
2022/07/21 09:33:27;;;;;;;13.38;11.15;;;22.10;99.90;;;;;;5088834;28;20052;-77
2022/07/21 09:36:09;;;;;;;11.63;9.32;;;22.00;99.90;;;;;;5083633;28;20066;-78
2022/07/21 09:38:37;;;;;;;10.82;9.52;;;22.00;99.90;;;;;;5083182;28;20039;-77
2022/07/21 09:41:22;;;;;;;10.40;9.40;;;22.20;99.90;;;;;;5113262;27;20020;-76
2022/07/21 09:43:52;;;;;;;11.63;10.15;;;22.10;99.90;;;;;;5082341;28;20103;-76
2022/07/21 09:46:26;;;;;;;12.07;10.18;;;22.20;99.90;;;;;;5087697;28;20036;-82
2022/07/21 09:48:54;;;;;;;10.85;9.75;;;22.30;99.90;;;;;;5084096;28;20020;-76
2022/07/21 09:51:28;;;;;;;11.68;10.45;;;22.30;99.90;;;;;;5085494;28;20354;-81
2022/07/21 09:53:54;;;;;;;10.98;8.73;;;22.20;99.90;;;;;;5079635;28;20024;-82
2022/07/21 09:56:20;;;;;;;10.55;9.52;;;22.20;99.90;;;;;;5085594;28;20093;-81
2022/07/21 09:58:49;;;;;;;9.80;8.90;;;22.20;99.90;;;;;;5089586;28;20383;-78
2022/07/21 10:01:15;;;;;;;8.27;7.45;;;22.20;99.90;;;;;;5084385;28;20043;-77
2022/07/21 10:03:44;;;;;;;6.72;6.10;;;22.20;99.90;;;;;;5087775;28;20496;-80
2022/07/21 10:06:10;;;;;;;6.47;5.85;;;22.20;99.90;;;;;;5082024;28;20043;-80
2022/07/21 10:08:37;;;;;;;4.53;4.22;;;22.20;99.90;;;;;;5086345;28;20380;-80
2022/07/21 10:11:03;;;;;;;7.13;4.60;;;22.20;99.90;;;;;;5082159;28;20105;-79
2022/07/21 10:13:29;;;;;;;4.07;3.75;;;22.10;99.90;;;;;;5084210;28;20145;-80
2022/07/21 10:15:55;;;;;;;4.82;4.43;;;22.10;99.90;;;;;;5083215;28;21956;-82
2022/07/21 10:18:37;;;;;;;4.85;4.40;;;22.10;99.90;;;;;;5085994;28;20036;-81
2022/07/21 10:21:14;;;;;;;5.85;4.22;;;22.00;99.90;;;;;;5083600;28;20025;-81
2022/07/21 10:23:43;;;;;;;4.80;4.35;;;22.00;99.90;;;;;;5081632;28;20025;-79
2022/07/21 10:26:11;;;;;;;5.00;4.53;;;21.90;99.90;;;;;;5078311;28;20044;-79
2022/07/21 10:28:37;;;;;;;4.63;4.22;;;21.90;99.90;;;;;;5089064;28;20093;-73
2022/07/21 10:31:41;;;;;;;5.72;4.57;;;21.90;99.90;;;;;;5082584;28;20178;-76
2022/07/21 10:34:07;;;;;;;6.50;4.55;;;21.90;99.90;;;;;;5078293;28;20473;-77
2022/07/21 10:36:37;;;;;;;4.63;4.32;;;21.80;99.90;;;;;;5085704;28;20046;-76
2022/07/21 10:39:17;;;;;;;5.53;5.13;;;21.70;99.90;;;;;;5080157;28;20494;-78
2022/07/21 10:41:46;;;;;;;5.13;4.72;;;21.70;99.90;;;;;;5085292;28;20036;-78
2022/07/21 10:44:27;;;;;;;6.10;5.60;;;21.70;99.90;;;;;;5078455;28;20098;-79
2022/07/21 10:47:30;;;;;;;5.97;5.43;;;21.60;99.90;;;;;;5082317;28;20131;-78
2022/07/21 10:50:00;;;;;;;6.53;5.95;;;21.70;99.90;;;;;;5001875;28;20022;-78
2022/07/21 10:52:35;;;;;;;7.82;7.13;;;21.80;99.90;;;;;;5070985;28;20123;-79
2022/07/21 10:55:28;;;;;;;10.82;7.50;;;21.60;99.90;;;;;;5077623;28;20074;-75
2022/07/21 10:58:09;;;;;;;10.65;9.40;;;21.60;99.90;;;;;;5084372;28;20054;-75
2022/07/21 11:00:36;;;;;;;9.32;8.30;;;21.60;99.90;;;;;;5081880;28;20541;-76
2022/07/21 11:03:17;;;;;;;12.88;8.68;;;21.60;99.90;;;;;;5076838;28;20016;-75
2022/07/21 11:06:14;;;;;;;9.73;8.80;;;21.60;99.90;;;;;;5082652;28;20119;-74
2022/07/21 11:08:47;;;;;;;10.05;9.05;;;21.50;99.90;;;;;;5084852;28;20480;-73
2022/07/21 11:11:22;;;;;;;11.75;9.73;;;21.50;99.90;;;;;;5084798;28;20031;-73
2022/07/21 11:14:10;;;;;;;10.57;9.60;;;21.50;99.90;;;;;;5078283;28;20024;-73
2022/07/21 11:16:41;;;;;;;13.27;11.25;;;21.50;99.90;;;;;;5084103;28;20028;-73
2022/07/21 11:19:26;;;;;;;13.05;11.57;;;21.60;99.90;;;;;;5078209;28;20070;-73
2022/07/21 11:21:52;;;;;;;14.98;12.48;;;21.60;99.90;;;;;;5078747;28;20088;-73
2022/07/21 11:24:19;;;;;;;14.90;12.40;;;21.60;99.90;;;;;;5090456;28;20032;-73
2022/07/21 11:26:44;;;;;;;14.05;12.10;;;21.60;99.90;;;;;;5082009;28;20079;-70
2022/07/21 11:29:10;;;;;;;14.02;12.63;;;21.60;99.90;;;;;;5079060;28;20492;-72
2022/07/21 11:31:46;;;;;;;13.25;11.90;;;21.60;99.90;;;;;;5078454;28;20100;-72
2022/07/21 11:34:12;;;;;;;18.58;13.80;;;21.60;99.90;;;;;;5081422;28;20024;-73
2022/07/21 11:36:38;;;;;;;17.25;11.98;;;21.80;99.90;;;;;;5082375;28;20036;-72
2022/07/21 11:39:05;;;;;;;16.50;13.25;;;21.70;99.90;;;;;;5085960;28;20085;-72
2022/07/21 11:41:31;;;;;;;16.40;14.50;;;21.60;99.90;;;;;;5089941;28;20015;-73
2022/07/21 11:43:57;;;;;;;15.82;14.00;;;21.60;99.90;;;;;;5082832;28;20032;-72
2022/07/21 11:46:23;;;;;;;16.23;14.63;;;21.60;99.90;;;;;;5095305;28;20051;-72
2022/07/21 11:48:59;;;;;;;17.30;13.95;;;21.70;99.90;;;;;;5084359;28;20021;-72
2022/07/21 11:51:25;;;;;;;14.65;13.18;;;21.70;99.90;;;;;;5088957;28;20040;-72
2022/07/21 11:53:50;;;;;;;17.17;15.27;;;21.70;99.90;;;;;;5087125;28;20126;-72
2022/07/21 11:56:16;;;;;;;16.33;13.75;;;21.70;99.90;;;;;;5086201;28;20040;-70
2022/07/21 11:58:44;;;;;;;18.17;13.95;;;21.60;99.90;;;;;;5090920;28;20099;-72
2022/07/21 12:01:11;;;;;;;14.68;11.90;;;21.50;99.90;;;;;;5088211;28;20028;-75
2022/07/21 12:03:50;;;;;;;12.27;11.00;;;21.50;99.90;;;;;;5087615;28;20030;-75
2022/07/21 12:06:17;;;;;;;13.48;12.15;;;21.40;99.90;;;;;;5082439;28;20127;-74
2022/07/21 12:08:44;;;;;;;12.75;10.77;;;21.30;99.90;;;;;;5082648;28;20449;-74
2022/07/21 12:11:12;;;;;;;12.45;11.15;;;21.30;99.90;;;;;;5084514;28;20477;-74
2022/07/21 12:13:57;;;;;;;13.13;11.73;;;21.30;99.90;;;;;;5081535;28;20025;-74
2022/07/21 12:16:24;;;;;;;13.07;11.77;;;21.40;99.90;;;;;;5090942;28;20032;-73
2022/07/21 12:19:14;;;;;;;14.73;12.65;;;21.40;99.90;;;;;;5085994;28;20077;-73
2022/07/21 12:21:47;;;;;;;10.82;9.70;;;21.40;99.90;;;;;;5087893;28;20009;-75
2022/07/21 12:24:13;;;;;;;12.20;9.20;;;21.40;99.90;;;;;;5080349;28;20111;-75
2022/07/21 12:26:39;;;;;;;11.40;10.30;;;21.30;99.90;;;;;;5090832;28;20119;-77
2022/07/21 12:29:04;;;;;;;11.73;10.05;;;21.30;99.90;;;;;;5092003;28;20016;-76
2022/07/21 12:31:34;;;;;;;11.02;9.85;;;21.30;99.90;;;;;;5088847;28;20031;-76
2022/07/21 12:34:14;;;;;;;15.02;10.35;;;21.30;99.90;;;;;;5087379;28;20024;-73